sensor_id;sensor_type;location;lat;lon;timestamp;P1;durP1;ratioP1;P2;durP2;ratioP2
52686;SDS011;38584;49.426;8.396;2024-01-15T00:00:24;37.92;;;14.48;;
52686;SDS011;38584;49.426;8.396;2024-01-15T00:02:49;33.83;;;13.77;;
52686;SDS011;38584;49.426;8.396;2024-01-15T00:05:18;38.33;;;14.77;;
52686;SDS011;38584;49.426;8.396;2024-01-15T00:07:49;37.70;;;14.55;;
52686;SDS011;38584;49.426;8.396;2024-01-15T00:10:15;36.35;;;15.20;;
52686;SDS011;38584;49.426;8.396;2024-01-15T00:12:41;36.55;;;13.75;;
52686;SDS011;38584;49.426;8.396;2024-01-15T00:15:06;39.60;;;13.57;;
52686;SDS011;38584;49.426;8.396;2024-01-15T00:17:32;39.40;;;13.88;;
52686;SDS011;38584;49.426;8.396;2024-01-15T00:19:57;39.45;;;14.15;;
52686;SDS011;38584;49.426;8.396;2024-01-15T00:22:24;37.70;;;14.20;;
52686;SDS011;38584;49.426;8.396;2024-01-15T00:24:53;35.13;;;12.98;;
52686;SDS011;38584;49.426;8.396;2024-01-15T00:27:20;37.15;;;13.60;;
52686;SDS011;38584;49.426;8.396;2024-01-15T00:29:45;33.80;;;12.73;;
52686;SDS011;38584;49.426;8.396;2024-01-15T00:32:11;35.28;;;12.48;;
52686;SDS011;38584;49.426;8.396;2024-01-15T00:34:36;31.92;;;12.38;;
52686;SDS011;38584;49.426;8.396;2024-01-15T00:37:05;33.28;;;13.35;;
52686;SDS011;38584;49.426;8.396;2024-01-15T00:39:34;37.30;;;13.57;;
52686;SDS011;38584;49.426;8.396;2024-01-15T00:42:00;31.42;;;10.48;;
52686;SDS011;38584;49.426;8.396;2024-01-15T00:44:28;37.67;;;14.45;;
52686;SDS011;38584;49.426;8.396;2024-01-15T00:46:58;35.03;;;13.82;;
52686;SDS011;38584;49.426;8.396;2024-01-15T00:49:24;36.05;;;13.18;;
52686;SDS011;38584;49.426;8.396;2024-01-15T00:51:49;35.28;;;13.52;;
52686;SDS011;38584;49.426;8.396;2024-01-15T00:54:14;41.88;;;14.57;;
52686;SDS011;38584;49.426;8.396;2024-01-15T00:56:40;38.15;;;14.57;;
52686;SDS011;38584;49.426;8.396;2024-01-15T00:59:05;37.97;;;13.85;;
52686;SDS011;38584;49.426;8.396;2024-01-15T01:01:31;37.35;;;13.60;;
52686;SDS011;38584;49.426;8.396;2024-01-15T01:03:56;44.17;;;14.07;;
52686;SDS011;38584;49.426;8.396;2024-01-15T01:06:22;28.40;;;10.10;;
52686;SDS011;38584;49.426;8.396;2024-01-15T01:08:50;40.75;;;13.57;;
52686;SDS011;38584;49.426;8.396;2024-01-15T01:11:15;40.70;;;13.40;;
52686;SDS011;38584;49.426;8.396;2024-01-15T01:13:41;40.47;;;14.50;;
52686;SDS011;38584;49.426;8.396;2024-01-15T01:16:06;37.22;;;13.35;;
52686;SDS011;38584;49.426;8.396;2024-01-15T01:18:32;39.53;;;14.32;;
52686;SDS011;38584;49.426;8.396;2024-01-15T01:20:57;36.10;;;13.25;;
52686;SDS011;38584;49.426;8.396;2024-01-15T01:23:28;34.03;;;13.05;;
52686;SDS011;38584;49.426;8.396;2024-01-15T01:25:54;39.40;;;13.50;;
52686;SDS011;38584;49.426;8.396;2024-01-15T01:28:22;36.95;;;13.98;;
52686;SDS011;38584;49.426;8.396;2024-01-15T01:30:48;39.88;;;12.05;;
52686;SDS011;38584;49.426;8.396;2024-01-15T01:33:13;35.58;;;14.00;;
52686;SDS011;38584;49.426;8.396;2024-01-15T01:35:38;36.60;;;13.02;;
52686;SDS011;38584;49.426;8.396;2024-01-15T01:38:03;34.47;;;13.32;;
52686;SDS011;38584;49.426;8.396;2024-01-15T01:40:35;32.92;;;12.10;;
52686;SDS011;38584;49.426;8.396;2024-01-15T01:43:02;36.90;;;13.88;;
52686;SDS011;38584;49.426;8.396;2024-01-15T01:45:28;41.30;;;15.18;;
52686;SDS011;38584;49.426;8.396;2024-01-15T01:47:53;36.38;;;13.73;;
52686;SDS011;38584;49.426;8.396;2024-01-15T01:50:22;36.08;;;14.15;;
52686;SDS011;38584;49.426;8.396;2024-01-15T01:52:47;36.83;;;13.75;;
52686;SDS011;38584;49.426;8.396;2024-01-15T01:55:13;37.58;;;14.60;;
52686;SDS011;38584;49.426;8.396;2024-01-15T01:57:39;42.63;;;14.98;;
52686;SDS011;38584;49.426;8.396;2024-01-15T02:00:05;35.95;;;13.23;;
52686;SDS011;38584;49.426;8.396;2024-01-15T02:02:35;37.10;;;13.75;;
52686;SDS011;38584;49.426;8.396;2024-01-15T02:05:00;43.13;;;13.55;;
52686;SDS011;38584;49.426;8.396;2024-01-15T02:07:26;42.00;;;13.25;;
52686;SDS011;38584;49.426;8.396;2024-01-15T02:09:52;38.03;;;14.57;;
52686;SDS011;38584;49.426;8.396;2024-01-15T02:12:17;39.65;;;13.98;;
52686;SDS011;38584;49.426;8.396;2024-01-15T02:14:43;37.92;;;13.95;;
52686;SDS011;38584;49.426;8.396;2024-01-15T02:17:11;40.25;;;14.18;;
52686;SDS011;38584;49.426;8.396;2024-01-15T02:19:39;39.53;;;14.10;;
52686;SDS011;38584;49.426;8.396;2024-01-15T02:22:05;36.35;;;14.20;;
52686;SDS011;38584;49.426;8.396;2024-01-15T02:24:31;32.60;;;13.10;;
52686;SDS011;38584;49.426;8.396;2024-01-15T02:26:56;33.55;;;11.77;;
52686;SDS011;38584;49.426;8.396;2024-01-15T02:29:21;32.70;;;12.15;;
52686;SDS011;38584;49.426;8.396;2024-01-15T02:31:50;29.33;;;10.13;;
52686;SDS011;38584;49.426;8.396;2024-01-15T02:34:21;32.35;;;9.93;;
52686;SDS011;38584;49.426;8.396;2024-01-15T02:36:47;29.13;;;10.15;;
52686;SDS011;38584;49.426;8.396;2024-01-15T02:39:15;31.60;;;11.00;;
52686;SDS011;38584;49.426;8.396;2024-01-15T02:41:40;27.20;;;9.43;;
52686;SDS011;38584;49.426;8.396;2024-01-15T02:44:05;32.05;;;11.43;;
52686;SDS011;38584;49.426;8.396;2024-01-15T02:46:31;29.65;;;9.85;;
52686;SDS011;38584;49.426;8.396;2024-01-15T02:48:56;36.38;;;11.52;;
52686;SDS011;38584;49.426;8.396;2024-01-15T02:51:21;27.63;;;10.32;;
52686;SDS011;38584;49.426;8.396;2024-01-15T02:53:48;29.40;;;10.95;;
52686;SDS011;38584;49.426;8.396;2024-01-15T02:56:15;33.13;;;11.07;;
52686;SDS011;38584;49.426;8.396;2024-01-15T02:58:40;28.52;;;10.45;;
52686;SDS011;38584;49.426;8.396;2024-01-15T03:01:08;30.85;;;10.82;;
52686;SDS011;38584;49.426;8.396;2024-01-15T03:03:33;31.08;;;11.65;;
52686;SDS011;38584;49.426;8.396;2024-01-15T03:05:59;36.25;;;12.48;;
52686;SDS011;38584;49.426;8.396;2024-01-15T03:08:24;34.40;;;12.60;;
52686;SDS011;38584;49.426;8.396;2024-01-15T03:10:50;37.92;;;13.10;;
52686;SDS011;38584;49.426;8.396;2024-01-15T03:13:18;33.58;;;12.05;;
52686;SDS011;38584;49.426;8.396;2024-01-15T03:15:47;33.67;;;12.23;;
52686;SDS011;38584;49.426;8.396;2024-01-15T03:18:12;33.92;;;12.68;;
52686;SDS011;38584;49.426;8.396;2024-01-15T03:20:41;32.03;;;12.15;;
52686;SDS011;38584;49.426;8.396;2024-01-15T03:23:06;32.72;;;12.30;;
52686;SDS011;38584;49.426;8.396;2024-01-15T03:25:34;35.38;;;13.30;;
52686;SDS011;38584;49.426;8.396;2024-01-15T03:27:59;33.55;;;12.73;;
52686;SDS011;38584;49.426;8.396;2024-01-15T03:30:31;30.33;;;11.60;;
52686;SDS011;38584;49.426;8.396;2024-01-15T03:32:56;31.92;;;12.07;;
52686;SDS011;38584;49.426;8.396;2024-01-15T03:35:24;31.75;;;11.60;;
52686;SDS011;38584;49.426;8.396;2024-01-15T03:37:54;27.60;;;10.23;;
52686;SDS011;38584;49.426;8.396;2024-01-15T03:40:19;31.05;;;10.43;;
52686;SDS011;38584;49.426;8.396;2024-01-15T03:42:44;29.35;;;11.50;;
52686;SDS011;38584;49.426;8.396;2024-01-15T03:45:10;32.65;;;11.27;;
52686;SDS011;38584;49.426;8.396;2024-01-15T03:47:35;31.58;;;11.52;;
52686;SDS011;38584;49.426;8.396;2024-01-15T03:50:00;35.33;;;12.23;;
52686;SDS011;38584;49.426;8.396;2024-01-15T03:52:26;34.78;;;12.23;;
52686;SDS011;38584;49.426;8.396;2024-01-15T03:54:54;30.73;;;11.57;;
52686;SDS011;38584;49.426;8.396;2024-01-15T03:57:22;33.33;;;12.35;;
52686;SDS011;38584;49.426;8.396;2024-01-15T03:59:47;30.75;;;12.25;;
52686;SDS011;38584;49.426;8.396;2024-01-15T04:02:13;28.05;;;10.65;;
52686;SDS011;38584;49.426;8.396;2024-01-15T04:04:42;32.28;;;12.20;;
52686;SDS011;38584;49.426;8.396;2024-01-15T04:07:08;35.97;;;12.23;;
52686;SDS011;38584;49.426;8.396;2024-01-15T04:09:36;32.42;;;11.82;;
52686;SDS011;38584;49.426;8.396;2024-01-15T04:12:07;29.80;;;11.52;;
52686;SDS011;38584;49.426;8.396;2024-01-15T04:14:33;30.40;;;10.65;;
52686;SDS011;38584;49.426;8.396;2024-01-15T04:16:58;31.20;;;12.27;;
52686;SDS011;38584;49.426;8.396;2024-01-15T04:19:23;34.70;;;12.27;;
52686;SDS011;38584;49.426;8.396;2024-01-15T04:21:49;33.88;;;12.00;;
52686;SDS011;38584;49.426;8.396;2024-01-15T04:24:14;30.42;;;11.93;;
52686;SDS011;38584;49.426;8.396;2024-01-15T04:26:45;31.55;;;11.30;;
52686;SDS011;38584;49.426;8.396;2024-01-15T04:29:11;30.85;;;11.05;;
52686;SDS011;38584;49.426;8.396;2024-01-15T04:31:37;30.58;;;12.15;;
52686;SDS011;38584;49.426;8.396;2024-01-15T04:34:02;31.50;;;12.50;;
52686;SDS011;38584;49.426;8.396;2024-01-15T04:36:27;32.72;;;12.30;;
52686;SDS011;38584;49.426;8.396;2024-01-15T04:38:56;30.90;;;11.80;;
52686;SDS011;38584;49.426;8.396;2024-01-15T04:41:24;31.70;;;12.13;;
52686;SDS011;38584;49.426;8.396;2024-01-15T04:43:59;31.33;;;11.65;;
52686;SDS011;38584;49.426;8.396;2024-01-15T04:46:26;32.55;;;12.23;;
52686;SDS011;38584;49.426;8.396;2024-01-15T04:48:51;32.65;;;12.65;;
52686;SDS011;38584;49.426;8.396;2024-01-15T04:51:16;31.50;;;13.02;;
52686;SDS011;38584;49.426;8.396;2024-01-15T04:53:42;31.55;;;12.50;;
52686;SDS011;38584;49.426;8.396;2024-01-15T04:56:07;30.95;;;11.68;;
52686;SDS011;38584;49.426;8.396;2024-01-15T04:58:32;29.48;;;11.45;;
52686;SDS011;38584;49.426;8.396;2024-01-15T05:00:57;33.28;;;11.57;;
52686;SDS011;38584;49.426;8.396;2024-01-15T05:03:23;29.48;;;9.95;;
52686;SDS011;38584;49.426;8.396;2024-01-15T05:05:48;30.75;;;11.52;;
52686;SDS011;38584;49.426;8.396;2024-01-15T05:08:13;32.38;;;11.50;;
52686;SDS011;38584;49.426;8.396;2024-01-15T05:10:42;32.58;;;11.15;;
52686;SDS011;38584;49.426;8.396;2024-01-15T05:13:07;30.70;;;11.55;;
52686;SDS011;38584;49.426;8.396;2024-01-15T05:15:34;29.90;;;10.88;;
52686;SDS011;38584;49.426;8.396;2024-01-15T05:18:02;32.78;;;11.80;;
52686;SDS011;38584;49.426;8.396;2024-01-15T05:20:30;29.23;;;11.38;;
52686;SDS011;38584;49.426;8.396;2024-01-15T05:22:56;32.85;;;12.13;;
52686;SDS011;38584;49.426;8.396;2024-01-15T05:25:21;32.08;;;12.23;;
52686;SDS011;38584;49.426;8.396;2024-01-15T05:27:46;32.15;;;11.70;;
52686;SDS011;38584;49.426;8.396;2024-01-15T05:30:12;31.42;;;12.43;;
52686;SDS011;38584;49.426;8.396;2024-01-15T05:32:37;36.80;;;12.88;;
52686;SDS011;38584;49.426;8.396;2024-01-15T05:35:03;35.45;;;12.43;;
52686;SDS011;38584;49.426;8.396;2024-01-15T05:37:28;32.33;;;12.95;;
52686;SDS011;38584;49.426;8.396;2024-01-15T05:39:57;34.70;;;13.02;;
52686;SDS011;38584;49.426;8.396;2024-01-15T05:42:22;36.63;;;14.10;;
52686;SDS011;38584;49.426;8.396;2024-01-15T05:44:47;36.75;;;13.75;;
52686;SDS011;38584;49.426;8.396;2024-01-15T05:47:13;36.20;;;13.05;;
52686;SDS011;38584;49.426;8.396;2024-01-15T05:49:38;36.22;;;13.85;;
52686;SDS011;38584;49.426;8.396;2024-01-15T05:52:03;34.38;;;12.18;;
52686;SDS011;38584;49.426;8.396;2024-01-15T05:54:29;29.67;;;11.35;;
52686;SDS011;38584;49.426;8.396;2024-01-15T05:56:54;27.98;;;9.18;;
52686;SDS011;38584;49.426;8.396;2024-01-15T05:59:19;26.17;;;10.43;;
52686;SDS011;38584;49.426;8.396;2024-01-15T06:01:45;31.80;;;11.25;;
52686;SDS011;38584;49.426;8.396;2024-01-15T06:04:10;28.05;;;11.20;;
52686;SDS011;38584;49.426;8.396;2024-01-15T06:06:35;26.98;;;9.43;;
52686;SDS011;38584;49.426;8.396;2024-01-15T06:09:01;31.02;;;11.38;;
52686;SDS011;38584;49.426;8.396;2024-01-15T06:11:30;27.50;;;10.25;;
52686;SDS011;38584;49.426;8.396;2024-01-15T06:13:58;28.50;;;11.38;;
52686;SDS011;38584;49.426;8.396;2024-01-15T06:16:28;26.02;;;9.05;;
52686;SDS011;38584;49.426;8.396;2024-01-15T06:18:58;28.88;;;10.82;;
52686;SDS011;38584;49.426;8.396;2024-01-15T06:21:26;29.40;;;10.52;;
52686;SDS011;38584;49.426;8.396;2024-01-15T06:23:53;28.48;;;11.60;;
52686;SDS011;38584;49.426;8.396;2024-01-15T06:26:18;26.52;;;10.30;;
52686;SDS011;38584;49.426;8.396;2024-01-15T06:28:44;29.50;;;11.60;;
52686;SDS011;38584;49.426;8.396;2024-01-15T06:31:09;26.25;;;10.55;;
52686;SDS011;38584;49.426;8.396;2024-01-15T06:33:44;27.05;;;10.65;;
52686;SDS011;38584;49.426;8.396;2024-01-15T06:36:12;36.75;;;15.73;;
52686;SDS011;38584;49.426;8.396;2024-01-15T06:38:37;37.58;;;15.82;;
52686;SDS011;38584;49.426;8.396;2024-01-15T06:41:08;33.45;;;13.38;;
52686;SDS011;38584;49.426;8.396;2024-01-15T06:43:37;31.67;;;12.23;;
52686;SDS011;38584;49.426;8.396;2024-01-15T06:46:08;28.45;;;11.57;;
52686;SDS011;38584;49.426;8.396;2024-01-15T06:48:34;28.20;;;10.98;;
52686;SDS011;38584;49.426;8.396;2024-01-15T06:50:59;29.88;;;11.60;;
52686;SDS011;38584;49.426;8.396;2024-01-15T06:53:24;32.70;;;13.77;;
52686;SDS011;38584;49.426;8.396;2024-01-15T06:55:50;34.28;;;14.18;;
52686;SDS011;38584;49.426;8.396;2024-01-15T06:58:16;33.55;;;13.75;;
52686;SDS011;38584;49.426;8.396;2024-01-15T07:00:41;34.78;;;14.40;;
52686;SDS011;38584;49.426;8.396;2024-01-15T07:03:06;35.00;;;13.15;;
52686;SDS011;38584;49.426;8.396;2024-01-15T07:05:32;34.53;;;12.98;;
52686;SDS011;38584;49.426;8.396;2024-01-15T07:07:57;31.48;;;13.73;;
52686;SDS011;38584;49.426;8.396;2024-01-15T07:10:23;35.38;;;14.15;;
52686;SDS011;38584;49.426;8.396;2024-01-15T07:12:48;33.45;;;14.15;;
52686;SDS011;38584;49.426;8.396;2024-01-15T07:15:14;30.75;;;12.60;;
52686;SDS011;38584;49.426;8.396;2024-01-15T07:17:42;31.17;;;12.88;;
52686;SDS011;38584;49.426;8.396;2024-01-15T07:20:08;30.33;;;12.52;;
52686;SDS011;38584;49.426;8.396;2024-01-15T07:22:35;29.80;;;13.35;;
52686;SDS011;38584;49.426;8.396;2024-01-15T07:25:01;33.47;;;13.63;;
52686;SDS011;38584;49.426;8.396;2024-01-15T07:27:26;31.23;;;12.85;;
52686;SDS011;38584;49.426;8.396;2024-01-15T07:29:51;35.75;;;13.38;;
52686;SDS011;38584;49.426;8.396;2024-01-15T07:32:17;31.75;;;13.73;;
52686;SDS011;38584;49.426;8.396;2024-01-15T07:34:42;34.45;;;14.43;;
52686;SDS011;38584;49.426;8.396;2024-01-15T07:37:08;34.72;;;14.52;;
52686;SDS011;38584;49.426;8.396;2024-01-15T07:39:33;31.27;;;13.07;;
52686;SDS011;38584;49.426;8.396;2024-01-15T07:41:59;33.60;;;13.48;;
52686;SDS011;38584;49.426;8.396;2024-01-15T07:44:28;32.97;;;13.23;;
52686;SDS011;38584;49.426;8.396;2024-01-15T07:46:53;34.22;;;13.88;;
52686;SDS011;38584;49.426;8.396;2024-01-15T07:49:18;37.90;;;14.65;;
52686;SDS011;38584;49.426;8.396;2024-01-15T07:51:47;30.65;;;14.85;;
52686;SDS011;38584;49.426;8.396;2024-01-15T07:54:12;29.10;;;12.98;;
52686;SDS011;38584;49.426;8.396;2024-01-15T07:59:26;36.03;;;14.48;;
52686;SDS011;38584;49.426;8.396;2024-01-15T08:01:58;35.72;;;14.32;;
52686;SDS011;38584;49.426;8.396;2024-01-15T08:04:24;33.60;;;14.90;;
52686;SDS011;38584;49.426;8.396;2024-01-15T08:06:49;34.63;;;14.30;;
52686;SDS011;38584;49.426;8.396;2024-01-15T08:09:17;37.97;;;14.48;;
52686;SDS011;38584;49.426;8.396;2024-01-15T08:11:43;32.85;;;14.52;;
52686;SDS011;38584;49.426;8.396;2024-01-15T08:14:09;32.45;;;13.65;;
52686;SDS011;38584;49.426;8.396;2024-01-15T08:16:35;31.10;;;13.85;;
52686;SDS011;38584;49.426;8.396;2024-01-15T08:19:03;35.33;;;14.32;;
52686;SDS011;38584;49.426;8.396;2024-01-15T08:21:29;31.30;;;13.98;;
52686;SDS011;38584;49.426;8.396;2024-01-15T08:24:00;32.58;;;14.00;;
52686;SDS011;38584;49.426;8.396;2024-01-15T08:26:27;35.20;;;15.15;;
52686;SDS011;38584;49.426;8.396;2024-01-15T08:28:52;34.08;;;13.90;;
52686;SDS011;38584;49.426;8.396;2024-01-15T08:31:21;34.15;;;14.75;;
52686;SDS011;38584;49.426;8.396;2024-01-15T08:33:46;34.47;;;13.55;;
52686;SDS011;38584;49.426;8.396;2024-01-15T08:36:12;30.55;;;13.25;;
52686;SDS011;38584;49.426;8.396;2024-01-15T08:38:40;35.40;;;14.57;;
52686;SDS011;38584;49.426;8.396;2024-01-15T08:41:05;31.67;;;14.02;;
52686;SDS011;38584;49.426;8.396;2024-01-15T08:43:33;34.33;;;14.85;;
52686;SDS011;38584;49.426;8.396;2024-01-15T08:45:58;33.22;;;14.70;;
52686;SDS011;38584;49.426;8.396;2024-01-15T08:48:24;34.67;;;14.23;;
52686;SDS011;38584;49.426;8.396;2024-01-15T08:50:52;32.55;;;14.93;;
52686;SDS011;38584;49.426;8.396;2024-01-15T08:53:17;32.30;;;14.55;;
52686;SDS011;38584;49.426;8.396;2024-01-15T08:55:42;33.45;;;14.63;;
52686;SDS011;38584;49.426;8.396;2024-01-15T08:58:09;35.75;;;14.73;;
52686;SDS011;38584;49.426;8.396;2024-01-15T09:00:34;31.98;;;14.40;;
52686;SDS011;38584;49.426;8.396;2024-01-15T09:02:59;32.08;;;14.07;;
52686;SDS011;38584;49.426;8.396;2024-01-15T09:05:25;29.63;;;12.60;;
52686;SDS011;38584;49.426;8.396;2024-01-15T09:07:50;29.63;;;12.35;;
52686;SDS011;38584;49.426;8.396;2024-01-15T09:10:17;23.95;;;10.57;;
52686;SDS011;38584;49.426;8.396;2024-01-15T09:12:45;28.52;;;12.85;;
52686;SDS011;38584;49.426;8.396;2024-01-15T09:15:11;29.83;;;12.18;;
52686;SDS011;38584;49.426;8.396;2024-01-15T09:17:37;25.75;;;12.90;;
52686;SDS011;38584;49.426;8.396;2024-01-15T09:20:02;26.35;;;11.30;;
52686;SDS011;38584;49.426;8.396;2024-01-15T09:22:29;27.02;;;13.07;;
52686;SDS011;38584;49.426;8.396;2024-01-15T09:24:54;26.92;;;11.80;;
52686;SDS011;38584;49.426;8.396;2024-01-15T09:27:26;25.25;;;11.40;;
52686;SDS011;38584;49.426;8.396;2024-01-15T09:29:54;26.25;;;11.18;;
52686;SDS011;38584;49.426;8.396;2024-01-15T09:32:20;24.98;;;11.15;;
52686;SDS011;38584;49.426;8.396;2024-01-15T09:34:48;25.23;;;10.98;;
52686;SDS011;38584;49.426;8.396;2024-01-15T09:37:14;22.75;;;10.63;;
52686;SDS011;38584;49.426;8.396;2024-01-15T09:39:39;22.73;;;10.55;;
52686;SDS011;38584;49.426;8.396;2024-01-15T09:42:05;21.85;;;10.57;;
52686;SDS011;38584;49.426;8.396;2024-01-15T09:44:33;24.40;;;11.45;;
52686;SDS011;38584;49.426;8.396;2024-01-15T09:46:59;26.48;;;10.60;;
52686;SDS011;38584;49.426;8.396;2024-01-15T09:49:24;25.10;;;10.85;;
52686;SDS011;38584;49.426;8.396;2024-01-15T09:51:53;26.35;;;11.35;;
52686;SDS011;38584;49.426;8.396;2024-01-15T09:54:19;24.65;;;11.90;;
52686;SDS011;38584;49.426;8.396;2024-01-15T09:56:46;15.07;;;6.65;;
52686;SDS011;38584;49.426;8.396;2024-01-15T09:59:14;23.27;;;10.05;;
52686;SDS011;38584;49.426;8.396;2024-01-15T10:01:46;21.92;;;10.23;;
52686;SDS011;38584;49.426;8.396;2024-01-15T10:04:13;22.73;;;10.70;;
52686;SDS011;38584;49.426;8.396;2024-01-15T10:06:39;23.65;;;10.32;;
52686;SDS011;38584;49.426;8.396;2024-01-15T10:09:08;23.85;;;10.40;;
52686;SDS011;38584;49.426;8.396;2024-01-15T10:11:33;25.10;;;10.10;;
52686;SDS011;38584;49.426;8.396;2024-01-15T10:13:58;22.83;;;9.98;;
52686;SDS011;38584;49.426;8.396;2024-01-15T10:16:24;22.77;;;11.23;;
52686;SDS011;38584;49.426;8.396;2024-01-15T10:18:53;27.00;;;12.18;;
52686;SDS011;38584;49.426;8.396;2024-01-15T10:21:19;25.27;;;12.10;;
52686;SDS011;38584;49.426;8.396;2024-01-15T10:23:44;24.10;;;11.40;;
52686;SDS011;38584;49.426;8.396;2024-01-15T10:26:10;26.38;;;11.93;;
52686;SDS011;38584;49.426;8.396;2024-01-15T10:28:40;22.25;;;10.98;;
52686;SDS011;38584;49.426;8.396;2024-01-15T10:31:05;23.83;;;11.02;;
52686;SDS011;38584;49.426;8.396;2024-01-15T10:33:31;26.92;;;12.52;;
52686;SDS011;38584;49.426;8.396;2024-01-15T10:35:57;22.80;;;10.32;;
52686;SDS011;38584;49.426;8.396;2024-01-15T10:38:23;23.45;;;10.20;;
52686;SDS011;38584;49.426;8.396;2024-01-15T10:40:53;22.65;;;10.05;;
52686;SDS011;38584;49.426;8.396;2024-01-15T10:43:20;28.17;;;11.35;;
52686;SDS011;38584;49.426;8.396;2024-01-15T10:45:50;20.73;;;9.73;;
52686;SDS011;38584;49.426;8.396;2024-01-15T10:48:16;25.02;;;10.63;;
52686;SDS011;38584;49.426;8.396;2024-01-15T10:50:46;25.08;;;10.65;;
52686;SDS011;38584;49.426;8.396;2024-01-15T10:53:15;21.25;;;10.18;;
52686;SDS011;38584;49.426;8.396;2024-01-15T10:55:41;23.85;;;10.30;;
52686;SDS011;38584;49.426;8.396;2024-01-15T10:58:07;23.67;;;10.40;;
52686;SDS011;38584;49.426;8.396;2024-01-15T11:00:36;24.50;;;10.63;;
52686;SDS011;38584;49.426;8.396;2024-01-15T11:03:05;33.15;;;13.50;;
52686;SDS011;38584;49.426;8.396;2024-01-15T11:05:37;25.40;;;11.13;;
52686;SDS011;38584;49.426;8.396;2024-01-15T11:08:06;24.20;;;10.23;;
52686;SDS011;38584;49.426;8.396;2024-01-15T11:10:42;23.35;;;11.07;;
52686;SDS011;38584;49.426;8.396;2024-01-15T11:13:53;22.08;;;10.40;;
52686;SDS011;38584;49.426;8.396;2024-01-15T11:16:04;24.05;;;10.80;;
52686;SDS011;38584;49.426;8.396;2024-01-15T11:18:35;22.67;;;10.77;;
52686;SDS011;38584;49.426;8.396;2024-01-15T11:23:48;16.92;;;6.22;;
52686;SDS011;38584;49.426;8.396;2024-01-15T11:34:49;18.67;;;7.95;;
52686;SDS011;38584;49.426;8.396;2024-01-15T11:37:24;18.20;;;7.43;;
52686;SDS011;38584;49.426;8.396;2024-01-15T11:39:51;13.88;;;5.53;;
52686;SDS011;38584;49.426;8.396;2024-01-15T11:42:17;18.88;;;7.70;;
52686;SDS011;38584;49.426;8.396;2024-01-15T11:44:43;15.23;;;6.07;;
52686;SDS011;38584;49.426;8.396;2024-01-15T11:47:10;18.80;;;8.05;;
52686;SDS011;38584;49.426;8.396;2024-01-15T11:52:21;16.05;;;6.05;;
52686;SDS011;38584;49.426;8.396;2024-01-15T11:54:55;19.55;;;8.35;;
52686;SDS011;38584;49.426;8.396;2024-01-15T11:57:50;18.55;;;8.65;;
52686;SDS011;38584;49.426;8.396;2024-01-15T12:00:15;18.60;;;7.68;;
52686;SDS011;38584;49.426;8.396;2024-01-15T12:02:41;18.42;;;7.43;;
52686;SDS011;38584;49.426;8.396;2024-01-15T12:05:14;18.10;;;8.27;;
52686;SDS011;38584;49.426;8.396;2024-01-15T12:07:49;22.40;;;8.65;;
52686;SDS011;38584;49.426;8.396;2024-01-15T12:10:19;17.90;;;7.72;;
52686;SDS011;38584;49.426;8.396;2024-01-15T12:15:25;19.23;;;7.95;;
52686;SDS011;38584;49.426;8.396;2024-01-15T12:17:51;18.73;;;8.98;;
52686;SDS011;38584;49.426;8.396;2024-01-15T12:20:20;19.02;;;8.35;;
52686;SDS011;38584;49.426;8.396;2024-01-15T12:22:45;21.80;;;10.05;;
52686;SDS011;38584;49.426;8.396;2024-01-15T12:25:11;16.65;;;6.93;;
52686;SDS011;38584;49.426;8.396;2024-01-15T12:27:36;18.67;;;9.38;;
52686;SDS011;38584;49.426;8.396;2024-01-15T12:30:01;18.88;;;6.90;;
52686;SDS011;38584;49.426;8.396;2024-01-15T12:32:27;15.75;;;6.55;;
52686;SDS011;38584;49.426;8.396;2024-01-15T12:34:56;16.70;;;6.47;;
52686;SDS011;38584;49.426;8.396;2024-01-15T12:37:21;15.10;;;5.95;;
52686;SDS011;38584;49.426;8.396;2024-01-15T12:39:49;17.55;;;7.82;;
52686;SDS011;38584;49.426;8.396;2024-01-15T12:42:15;16.80;;;7.68;;
52686;SDS011;38584;49.426;8.396;2024-01-15T12:44:42;15.25;;;6.28;;
52686;SDS011;38584;49.426;8.396;2024-01-15T12:47:07;19.55;;;7.28;;
52686;SDS011;38584;49.426;8.396;2024-01-15T12:49:32;18.92;;;8.13;;
52686;SDS011;38584;49.426;8.396;2024-01-15T12:51:58;15.05;;;6.82;;
52686;SDS011;38584;49.426;8.396;2024-01-15T12:54:24;20.08;;;8.65;;
52686;SDS011;38584;49.426;8.396;2024-01-15T12:56:56;16.60;;;7.55;;
52686;SDS011;38584;49.426;8.396;2024-01-15T12:59:21;19.73;;;9.23;;
52686;SDS011;38584;49.426;8.396;2024-01-15T13:01:52;18.25;;;7.82;;
52686;SDS011;38584;49.426;8.396;2024-01-15T13:04:21;17.35;;;8.43;;
52686;SDS011;38584;49.426;8.396;2024-01-15T13:06:51;17.13;;;8.13;;
52686;SDS011;38584;49.426;8.396;2024-01-15T13:09:19;22.40;;;8.43;;
52686;SDS011;38584;49.426;8.396;2024-01-15T13:11:47;20.15;;;8.77;;
52686;SDS011;38584;49.426;8.396;2024-01-15T13:14:13;18.45;;;8.35;;
52686;SDS011;38584;49.426;8.396;2024-01-15T13:16:39;20.25;;;7.95;;
52686;SDS011;38584;49.426;8.396;2024-01-15T13:19:06;19.27;;;7.93;;
52686;SDS011;38584;49.426;8.396;2024-01-15T13:21:32;17.75;;;8.30;;
52686;SDS011;38584;49.426;8.396;2024-01-15T13:23:57;20.30;;;9.02;;
52686;SDS011;38584;49.426;8.396;2024-01-15T13:26:22;16.92;;;6.80;;
52686;SDS011;38584;49.426;8.396;2024-01-15T13:28:48;17.70;;;6.50;;
52686;SDS011;38584;49.426;8.396;2024-01-15T13:31:20;16.45;;;7.07;;
52686;SDS011;38584;49.426;8.396;2024-01-15T13:33:45;17.35;;;7.18;;
52686;SDS011;38584;49.426;8.396;2024-01-15T13:36:10;17.63;;;8.27;;
52686;SDS011;38584;49.426;8.396;2024-01-15T13:38:36;17.60;;;7.20;;
52686;SDS011;38584;49.426;8.396;2024-01-15T13:41:04;19.00;;;8.10;;
52686;SDS011;38584;49.426;8.396;2024-01-15T13:43:29;15.77;;;6.97;;
52686;SDS011;38584;49.426;8.396;2024-01-15T13:45:56;15.70;;;7.07;;
52686;SDS011;38584;49.426;8.396;2024-01-15T13:48:24;17.85;;;7.70;;
52686;SDS011;38584;49.426;8.396;2024-01-15T13:50:52;18.98;;;7.10;;
52686;SDS011;38584;49.426;8.396;2024-01-15T13:53:18;18.00;;;7.60;;
52686;SDS011;38584;49.426;8.396;2024-01-15T13:55:44;15.40;;;7.13;;
52686;SDS011;38584;49.426;8.396;2024-01-15T13:58:09;19.35;;;7.85;;
52686;SDS011;38584;49.426;8.396;2024-01-15T14:00:34;17.73;;;6.45;;
52686;SDS011;38584;49.426;8.396;2024-01-15T14:03:00;17.60;;;7.85;;
52686;SDS011;38584;49.426;8.396;2024-01-15T14:05:25;16.88;;;7.47;;
52686;SDS011;38584;49.426;8.396;2024-01-15T14:07:57;20.00;;;8.02;;
52686;SDS011;38584;49.426;8.396;2024-01-15T14:10:23;13.90;;;5.30;;
52686;SDS011;38584;49.426;8.396;2024-01-15T14:12:55;17.73;;;7.80;;
52686;SDS011;38584;49.426;8.396;2024-01-15T14:15:20;16.25;;;7.80;;
52686;SDS011;38584;49.426;8.396;2024-01-15T14:17:46;16.83;;;7.57;;
52686;SDS011;38584;49.426;8.396;2024-01-15T14:20:17;16.52;;;6.57;;
52686;SDS011;38584;49.426;8.396;2024-01-15T14:22:45;16.58;;;6.53;;
52686;SDS011;38584;49.426;8.396;2024-01-15T14:25:11;18.00;;;7.00;;
52686;SDS011;38584;49.426;8.396;2024-01-15T14:27:36;17.15;;;7.15;;
52686;SDS011;38584;49.426;8.396;2024-01-15T14:30:02;17.73;;;6.97;;
52686;SDS011;38584;49.426;8.396;2024-01-15T14:32:28;18.98;;;6.70;;
52686;SDS011;38584;49.426;8.396;2024-01-15T14:34:56;15.88;;;6.78;;
52686;SDS011;38584;49.426;8.396;2024-01-15T14:37:22;15.73;;;7.07;;
52686;SDS011;38584;49.426;8.396;2024-01-15T14:39:47;16.05;;;6.28;;